Time;durP1;ratioP1;P1;durP2;ratioP2;P2;SDS_P1;SDS_P2;PMS_P1;PMS_P2;Temp;Humidity;BMP_temperature;BMP_pressure;BME280_temperature;BME280_humidity;BME280_pressure;Samples;Min_cycle;Max_cycle;Signal;HPM_P1;HPM_P2
2023/07/08 00:00:27;;;;;;;14.10;10.90;;;;;;;21.60;100.00;100299.88;5007330;28;20580;-65
2023/07/08 00:02:53;;;;;;;13.55;10.93;;;;;;;21.62;100.00;100287.59;5007444;28;20026;-62
2023/07/08 00:05:20;;;;;;;16.15;11.18;;;;;;;21.59;100.00;100289.41;5007320;28;20493;-63
2023/07/08 00:07:47;;;;;;;14.73;11.30;;;;;;;21.67;100.00;100286.66;5007318;28;20018;-64
2023/07/08 00:10:19;;;;;;;15.98;11.25;;;;;;;21.64;100.00;100282.31;5007229;28;20530;-62
2023/07/08 00:12:48;;;;;;;14.30;10.80;;;;;;;21.66;100.00;100267.44;4990747;28;20516;-66
2023/07/08 00:15:14;;;;;;;14.98;11.45;;;;;;;21.53;100.00;100269.28;5007236;28;20073;-64
2023/07/08 00:17:39;;;;;;;13.82;11.43;;;;;;;21.70;100.00;100268.25;5007403;28;20026;-62
2023/07/08 00:20:37;;;;;;;14.05;11.00;;;;;;;21.70;100.00;100269.13;5025061;28;20056;-64
2023/07/08 00:23:02;;;;;;;15.70;11.90;;;;;;;21.77;100.00;100270.78;5029099;28;20045;-64
2023/07/08 00:25:29;;;;;;;13.80;11.48;;;;;;;21.75;100.00;100267.28;5028727;28;20037;-64
2023/07/08 00:27:54;;;;;;;16.50;11.52;;;;;;;21.71;100.00;100265.59;5029397;28;20112;-61
2023/07/08 00:30:28;;;;;;;18.48;11.70;;;;;;;21.76;100.00;100279.56;5026894;28;20507;-61
2023/07/08 00:32:55;;;;;;;12.70;11.02;;;;;;;21.82;100.00;100273.38;5029093;28;20078;-63
2023/07/08 00:35:52;;;;;;;18.08;11.52;;;;;;;21.97;100.00;100267.91;5028673;28;20492;-63
2023/07/08 00:38:26;;;;;;;16.27;11.75;;;;;;;22.10;100.00;100254.59;5007314;28;20039;-64
2023/07/08 00:40:53;;;;;;;13.43;11.70;;;;;;;22.22;100.00;100266.66;5005878;28;20405;-65
2023/07/08 00:43:28;;;;;;;14.63;11.63;;;;;;;22.21;100.00;100259.69;5008994;28;20041;-62
2023/07/08 00:46:11;;;;;;;15.02;11.65;;;;;;;22.11;100.00;100259.81;4998223;28;20122;-66
2023/07/08 00:48:37;;;;;;;15.35;11.57;;;;;;;21.86;100.00;100232.13;5010109;28;20038;-62
2023/07/08 00:51:03;;;;;;;17.77;12.23;;;;;;;22.06;100.00;100266.03;5010280;28;20029;-63
2023/07/08 00:53:31;;;;;;;16.40;11.93;;;;;;;21.71;100.00;100233.19;5009891;28;20026;-62
2023/07/08 00:56:07;;;;;;;16.35;11.68;;;;;;;21.88;100.00;100272.41;5010254;28;20034;-67
2023/07/08 00:58:37;;;;;;;18.58;11.50;;;;;;;21.94;100.00;100267.06;4993236;28;20062;-62
2023/07/08 01:01:05;;;;;;;15.50;11.68;;;;;;;22.02;100.00;100270.47;5010315;28;20088;-67
2023/07/08 01:03:34;;;;;;;17.38;12.75;;;;;;;21.71;100.00;100212.16;5010032;28;20030;-65
2023/07/08 01:06:00;;;;;;;16.27;11.32;;;;;;;21.78;100.00;100212.09;5009924;28;20032;-65
2023/07/08 01:08:28;;;;;;;14.50;11.73;;;;;;;22.06;100.00;100274.78;5009661;28;20109;-63
2023/07/08 01:11:01;;;;;;;12.82;11.52;;;;;;;22.16;100.00;100278.16;5010018;28;20025;-62
2023/07/08 01:13:30;;;;;;;14.38;12.05;;;;;;;22.15;100.00;100260.66;5010433;28;20071;-66
2023/07/08 01:15:56;;;;;;;15.93;11.65;;;;;;;22.29;100.00;100273.59;5026437;28;20036;-62
2023/07/08 01:18:21;;;;;;;17.60;11.63;;;;;;;22.30;100.00;100270.91;5032258;28;20030;-69
2023/07/08 01:20:48;;;;;;;14.88;12.63;;;;;;;21.98;100.00;100239.84;5031874;28;20120;-64
2023/07/08 01:23:13;;;;;;;16.20;13.63;;;;;;;22.16;100.00;100269.38;5032066;28;20108;-63
2023/07/08 01:25:42;;;;;;;15.25;11.60;;;;;;;22.23;100.00;100263.16;5031965;28;20120;-63
2023/07/08 01:28:07;;;;;;;14.52;12.95;;;;;;;22.06;100.00;100235.34;5032555;28;20471;-65
2023/07/08 01:30:33;;;;;;;17.63;12.40;;;;;;;22.29;100.00;100265.69;5031665;28;20100;-63
2023/07/08 01:33:02;;;;;;;15.95;12.65;;;;;;;22.09;100.00;100251.09;5031889;28;20475;-64
2023/07/08 01:35:28;;;;;;;15.52;12.85;;;;;;;22.14;100.00;100265.03;5031688;28;20029;-65
2023/07/08 01:37:59;;;;;;;19.90;13.07;;;;;;;22.18;100.00;100278.13;5033977;28;20546;-63
2023/07/08 01:40:34;;;;;;;15.25;12.73;;;;;;;22.23;100.00;100266.66;5030989;28;20029;-62
2023/07/08 01:43:01;;;;;;;15.02;13.07;;;;;;;22.28;100.00;100266.59;5031942;28;20057;-63
2023/07/08 01:45:32;;;;;;;15.07;12.35;;;;;;;22.32;100.00;100280.56;5035385;28;20095;-64
2023/07/08 01:48:03;;;;;;;17.02;12.75;;;;;;;22.29;100.00;100297.25;5031700;28;20034;-62
2023/07/08 01:50:32;;;;;;;18.20;12.90;;;;;;;21.92;100.00;100268.84;5031114;28;20026;-64
2023/07/08 01:53:00;;;;;;;17.27;11.65;;;;;;;22.03;100.00;100302.88;5031072;28;20030;-65
2023/07/08 01:55:31;;;;;;;15.10;12.30;;;;;;;21.48;100.00;100237.84;5031759;28;20148;-63
2023/07/08 01:57:57;;;;;;;19.40;12.18;;;;;;;21.61;100.00;100267.47;5031381;28;20057;-65
2023/07/08 02:00:22;;;;;;;17.30;12.40;;;;;;;21.60;100.00;100262.25;5031460;28;20056;-65
2023/07/08 02:02:50;;;;;;;19.70;12.52;;;;;;;21.86;100.00;100308.31;5031379;28;20029;-62
2023/07/08 02:05:15;;;;;;;20.13;13.15;;;;;;;21.71;100.00;100306.75;5031117;28;20025;-65
2023/07/08 02:07:40;;;;;;;17.48;12.65;;;;;;;21.56;100.00;100307.81;5029532;28;20396;-67
2023/07/08 02:10:06;;;;;;;17.58;12.65;;;;;;;21.56;100.00;100295.56;5031046;28;20036;-65
2023/07/08 02:12:32;;;;;;;18.27;12.50;;;;;;;21.42;100.00;100264.16;5031137;28;20037;-68
2023/07/08 02:15:00;;;;;;;13.48;11.80;;;;;;;21.64;100.00;100290.22;5031356;28;20020;-65
2023/07/08 02:17:28;;;;;;;19.58;12.40;;;;;;;21.64;100.00;100285.81;5030931;28;20059;-65
2023/07/08 02:19:57;;;;;;;17.35;12.13;;;;;;;21.65;100.00;100276.19;5030549;28;20104;-65
2023/07/08 02:22:22;;;;;;;15.57;11.82;;;;;;;21.77;100.00;100281.28;5030592;28;20029;-65
2023/07/08 02:24:48;;;;;;;25.10;13.23;;;;;;;21.81;100.00;100277.72;5030835;28;20075;-64
2023/07/08 02:27:14;;;;;;;19.27;12.60;;;;;;;21.87;100.00;100282.06;5029597;28;20029;-67
2023/07/08 02:29:39;;;;;;;14.40;12.63;;;;;;;21.91;100.00;100283.75;5031055;28;20116;-62
2023/07/08 02:32:05;;;;;;;14.80;12.05;;;;;;;21.53;100.00;100250.03;5030646;28;20112;-63
2023/07/08 02:34:31;;;;;;;26.15;13.55;;;;;;;21.57;100.00;100299.03;5030457;28;20030;-62
2023/07/08 02:36:56;;;;;;;21.33;12.80;;;;;;;21.54;100.00;100293.81;5030349;28;20032;-62
2023/07/08 02:39:22;;;;;;;17.25;12.73;;;;;;;21.29;100.00;100257.28;5030843;28;20125;-65
2023/07/08 02:41:48;;;;;;;17.67;13.60;;;;;;;21.32;100.00;100284.41;5030830;28;20116;-63
2023/07/08 02:44:13;;;;;;;18.70;13.93;;;;;;;21.28;100.00;100272.19;5030385;28;20116;-63
2023/07/08 02:46:39;;;;;;;15.73;12.52;;;;;;;21.39;100.00;100277.31;5030568;28;20457;-63
2023/07/08 02:49:05;;;;;;;20.30;13.73;;;;;;;21.44;100.00;100279.91;5029879;28;20449;-64
2023/07/08 02:51:30;;;;;;;17.55;13.77;;;;;;;21.50;100.00;100293.81;5030212;28;20043;-67
2023/07/08 02:53:56;;;;;;;17.95;13.93;;;;;;;21.56;100.00;100290.31;5030183;28;20021;-66
2023/07/08 02:56:22;;;;;;;17.90;14.63;;;;;;;21.63;100.00;100285.84;5030292;28;20037;-65
2023/07/08 02:58:48;;;;;;;23.90;13.82;;;;;;;21.43;100.00;100260.66;5030500;28;20467;-66
2023/07/08 03:01:17;;;;;;;17.63;13.00;;;;;;;21.64;100.00;100298.94;5029885;28;20029;-64
2023/07/08 03:03:44;;;;;;;15.80;12.90;;;;;;;21.54;100.00;100293.81;5030426;28;20052;-66
2023/07/08 03:06:10;;;;;;;16.08;13.10;;;;;;;21.55;100.00;100300.81;5030182;28;20029;-68
2023/07/08 03:08:35;;;;;;;17.75;13.45;;;;;;;21.52;100.00;100300.81;5030307;28;20480;-66
2023/07/08 03:11:05;;;;;;;16.48;13.07;;;;;;;21.62;100.00;100305.09;5029784;28;20471;-68
2023/07/08 03:13:31;;;;;;;15.38;12.75;;;;;;;21.65;100.00;100318.22;5030387;28;20037;-66
2023/07/08 03:15:59;;;;;;;17.70;13.68;;;;;;;21.64;100.00;100316.47;5029883;28;20033;-63
2023/07/08 03:18:26;;;;;;;17.70;13.00;;;;;;;21.59;100.00;100307.78;5029713;28;20037;-65
2023/07/08 03:20:55;;;;;;;14.77;12.13;;;;;;;21.61;100.00;100321.78;5029889;28;20030;-67
2023/07/08 03:23:22;;;;;;;19.48;11.10;;;;;;;21.39;100.00;100345.59;5030030;28;20026;-62
2023/07/08 03:25:48;;;;;;;13.80;11.00;;;;;;;21.30;100.00;100340.44;5029736;28;20025;-67
2023/07/08 03:28:14;;;;;;;17.05;11.02;;;;;;;21.04;100.00;100341.53;5029795;28;20021;-65
2023/07/08 03:30:44;;;;;;;15.52;11.50;;;;;;;21.13;100.00;100328.34;5027095;28;20508;-63
2023/07/08 03:33:11;;;;;;;14.90;11.73;;;;;;;21.16;100.00;100323.06;5029924;28;20029;-65
2023/07/08 03:35:38;;;;;;;13.50;11.48;;;;;;;21.16;100.00;100332.69;5029607;28;20030;-65
2023/07/08 03:38:04;;;;;;;15.60;11.88;;;;;;;21.00;100.00;100324.06;5029747;28;20049;-67
2023/07/08 03:40:30;;;;;;;18.10;12.30;;;;;;;20.91;100.00;100309.28;5029479;28;20500;-65
2023/07/08 03:42:56;;;;;;;16.52;12.35;;;;;;;21.04;100.00;100314.44;5029512;28;20127;-62
2023/07/08 03:45:21;;;;;;;18.27;15.40;;;;;;;21.01;100.00;100320.56;5029166;28;20136;-65
2023/07/08 03:47:46;;;;;;;19.15;16.08;;;;;;;21.05;100.00;100324.91;5029863;28;20798;-69
2023/07/08 03:50:21;;;;;;;14.82;12.68;;;;;;;20.92;100.00;100325.88;5029266;28;20040;-63
2023/07/08 03:52:48;;;;;;;16.58;11.70;;;;;;;20.82;100.00;100331.22;5029327;28;20047;-62
2023/07/08 03:55:13;;;;;;;16.40;11.20;;;;;;;20.59;100.00;100299.00;5029481;28;20125;-63
2023/07/08 03:57:39;;;;;;;13.30;11.85;;;;;;;20.80;100.00;100337.38;5029555;28;20050;-65
2023/07/08 04:00:09;;;;;;;15.60;11.77;;;;;;;20.76;100.00;100339.13;5028782;28;20032;-66
2023/07/08 04:02:34;;;;;;;;;;;;;;;20.73;100.00;100341.75;5030056;28;20033;-65
2023/07/08 04:05:00;;;;;;;13.32;11.07;;;;;;;20.71;100.00;100335.69;5029337;28;20027;-62
2023/07/08 04:07:25;;;;;;;14.15;11.40;;;;;;;20.72;100.00;100333.91;5029586;28;20402;-68
2023/07/08 04:09:51;;;;;;;12.95;11.50;;;;;;;20.65;100.00;100339.16;5029390;28;20071;-62
2023/07/08 04:12:16;;;;;;;17.30;12.15;;;;;;;20.59;100.00;100333.09;5029193;28;20037;-62
2023/07/08 04:14:42;;;;;;;12.50;10.90;;;;;;;20.56;100.00;100322.63;5032070;28;20468;-64
2023/07/08 04:17:09;;;;;;;14.38;10.32;;;;;;;20.64;100.00;100328.69;5033461;28;20037;-65
2023/07/08 04:19:35;;;;;;;12.18;10.35;;;;;;;20.64;100.00;100334.78;5033671;28;20091;-68
2023/07/08 04:22:02;;;;;;;12.90;11.32;;;;;;;20.58;100.00;100315.63;5033332;28;20552;-65
2023/07/08 04:24:27;;;;;;;16.42;10.52;;;;;;;20.71;100.00;100332.13;5033094;28;20057;-64
2023/07/08 04:26:53;;;;;;;15.40;11.40;;;;;;;20.33;100.00;100264.19;5033412;28;20024;-66
2023/07/08 04:29:21;;;;;;;14.60;10.38;;;;;;;20.79;100.00;100331.22;5033682;28;20064;-62
2023/07/08 04:31:47;;;;;;;13.70;10.85;;;;;;;20.74;100.00;100326.91;5033393;28;20112;-62
2023/07/08 04:34:14;;;;;;;14.15;10.43;;;;;;;20.66;100.00;100325.19;5032075;28;20034;-62
2023/07/08 04:36:40;;;;;;;14.60;10.82;;;;;;;20.64;100.00;100319.06;5033525;28;20087;-61
2023/07/08 04:39:07;;;;;;;13.45;10.75;;;;;;;20.67;100.00;100320.78;5033351;28;20029;-66
2023/07/08 04:41:33;;;;;;;14.70;10.50;;;;;;;20.74;100.00;100319.91;5032798;28;20033;-68
2023/07/08 04:44:02;;;;;;;16.23;10.80;;;;;;;20.86;100.00;100321.56;5033285;28;20037;-67
2023/07/08 04:46:50;;;;;;;11.63;9.98;;;;;;;20.90;100.00;100309.28;5033019;28;20026;-66
2023/07/08 04:49:16;;;;;;;20.95;10.52;;;;;;;21.05;100.00;100319.66;5033164;28;20049;-61
2023/07/08 04:51:42;;;;;;;15.27;10.77;;;;;;;21.13;100.00;100320.47;5032896;28;20074;-66
2023/07/08 04:54:08;;;;;;;12.95;10.60;;;;;;;21.05;100.00;100280.28;5032149;28;20484;-67
2023/07/08 04:56:41;;;;;;;13.57;9.98;;;;;;;21.39;100.00;100315.84;5052813;28;20040;-68
2023/07/08 04:59:16;;;;;;;11.85;10.60;;;;;;;21.57;100.00;100325.31;5046593;28;20045;-67
2023/07/08 05:01:41;;;;;;;12.20;10.63;;;;;;;21.55;100.00;100308.69;5050753;28;20021;-66
2023/07/08 05:04:09;;;;;;;16.92;12.02;;;;;;;21.68;100.00;100323.44;5052566;28;20426;-66
2023/07/08 05:06:34;;;;;;;13.93;12.43;;;;;;;21.89;100.00;100338.06;5052241;28;20040;-63
2023/07/08 05:09:02;;;;;;;12.70;11.30;;;;;;;22.00;100.00;100351.09;5052407;28;20029;-64
2023/07/08 05:11:28;;;;;;;12.68;11.27;;;;;;;22.09;100.00;100350.09;5052480;28;20029;-64
2023/07/08 05:13:54;;;;;;;11.30;10.15;;;;;;;22.13;100.00;100347.44;5043514;28;20068;-67
2023/07/08 05:16:19;;;;;;;14.10;10.20;;;;;;;22.32;100.00;100360.34;5032140;28;20440;-63
2023/07/08 05:18:45;;;;;;;11.32;10.10;;;;;;;22.43;100.00;100361.09;5032677;28;20030;-65
2023/07/08 05:21:11;;;;;;;12.82;9.93;;;;;;;22.42;100.00;100359.34;5032282;28;20026;-67
2023/07/08 05:23:37;;;;;;;11.80;9.30;;;;;;;22.56;100.00;100377.56;5032385;28;20395;-67
2023/07/08 05:26:04;;;;;;;15.20;9.95;;;;;;;22.52;100.00;100375.88;5029824;28;20048;-65
2023/07/08 05:28:30;;;;;;;10.40;8.48;;;;;;;22.19;100.00;100338.56;5032326;28;20056;-68
2023/07/08 05:30:56;;;;;;;11.20;9.23;;;;;;;22.45;100.00;100372.47;5032068;28;20033;-63
2023/07/08 05:33:24;;;;;;;12.45;9.30;;;;;;;22.30;100.00;100338.44;5032022;28;20049;-64
2023/07/08 05:35:50;;;;;;;12.80;9.27;;;;;;;22.44;100.00;100372.47;5038846;28;20055;-68
2023/07/08 05:38:15;;;;;;;11.48;9.85;;;;;;;22.54;100.00;100382.00;5052069;28;20483;-64
2023/07/08 05:40:41;;;;;;;11.85;10.10;;;;;;;22.37;100.00;100350.66;5046857;28;20034;-67
2023/07/08 05:43:06;;;;;;;12.88;10.88;;;;;;;22.38;100.00;100355.03;5031899;28;20026;-68
2023/07/08 05:45:32;;;;;;;12.52;11.07;;;;;;;22.49;100.00;100364.53;5031768;28;20112;-63
2023/07/08 05:47:57;;;;;;;13.77;10.75;;;;;;;22.70;100.00;100400.19;5030933;28;20026;-65
2023/07/08 05:50:23;;;;;;;11.43;10.25;;;;;;;22.73;100.00;100403.66;5031004;28;20101;-62
2023/07/08 05:52:48;;;;;;;10.73;9.52;;;;;;;22.73;100.00;100403.66;5031985;28;20410;-66
2023/07/08 05:55:15;;;;;;;12.77;10.18;;;;;;;22.80;100.00;100403.56;5030394;28;20068;-66
2023/07/08 05:57:40;;;;;;;14.75;9.07;;;;;;;22.67;100.00;100366.91;5030166;28;20057;-67
2023/07/08 06:00:07;;;;;;;13.07;10.13;;;;;;;23.03;100.00;100397.94;5029394;28;20549;-67
2023/07/08 06:02:32;;;;;;;11.73;9.55;;;;;;;22.90;100.00;100382.34;5028105;28;20127;-65
2023/07/08 06:04:57;;;;;;;11.90;9.48;;;;;;;23.19;100.00;100411.75;5030035;28;20036;-66
2023/07/08 06:07:23;;;;;;;7.28;5.03;;;;;;;23.24;94.02;100409.91;5030515;28;20021;-67
2023/07/08 06:09:48;;;;;;;7.65;4.70;;;;;;;23.24;90.55;100408.16;5030575;28;20079;-66
2023/07/08 06:12:14;;;;;;;6.50;4.63;;;;;;;23.27;90.31;100402.84;5030235;28;20026;-68
2023/07/08 06:14:40;;;;;;;8.05;4.63;;;;;;;23.26;89.80;100406.38;5030015;28;20025;-63
2023/07/08 06:17:06;;;;;;;6.50;4.40;;;;;;;23.41;90.43;100413.16;5030693;28;20096;-67
2023/07/08 06:19:32;;;;;;;7.28;5.63;;;;;;;23.49;92.11;100409.50;5031359;28;20029;-68
2023/07/08 06:21:58;;;;;;;6.47;5.30;;;;;;;23.56;89.25;100404.13;5031421;28;20472;-68
2023/07/08 06:24:23;;;;;;;7.60;4.47;;;;;;;23.48;87.48;100378.78;5031670;28;20025;-66
2023/07/08 06:26:48;;;;;;;5.57;4.40;;;;;;;23.73;87.15;100413.47;5031218;28;20506;-63
2023/07/08 06:29:15;;;;;;;6.30;4.43;;;;;;;23.74;85.64;100413.44;5031046;28;20119;-65
2023/07/08 06:31:41;;;;;;;6.22;4.50;;;;;;;23.78;84.91;100379.13;5029947;28;20037;-63
2023/07/08 06:34:06;;;;;;;6.93;4.75;;;;;;;23.87;85.26;100406.16;5030159;28;20017;-69
2023/07/08 06:36:32;;;;;;;5.45;4.40;;;;;;;24.00;84.69;100419.13;5027766;28;20041;-66
2023/07/08 06:38:57;;;;;;;7.13;4.80;;;;;;;24.04;86.91;100412.94;5030530;28;20040;-69
2023/07/08 06:41:23;;;;;;;9.75;5.80;;;;;;;24.25;86.37;100411.63;5030287;28;20029;-69
2023/07/08 06:43:49;;;;;;;8.00;5.32;;;;;;;24.42;83.82;100420.94;5030554;28;20049;-64
2023/07/08 06:46:15;;;;;;;6.85;5.18;;;;;;;24.55;84.46;100422.44;5030715;28;20024;-63
2023/07/08 06:48:40;;;;;;;11.45;5.85;;;;;;;24.62;85.32;100429.28;5029289;28;20442;-64
2023/07/08 06:51:06;;;;;;;6.13;5.32;;;;;;;24.55;85.02;100425.06;5030659;28;20083;-66
2023/07/08 06:53:32;;;;;;;7.28;5.88;;;;;;;24.62;86.83;100431.06;5027758;28;20100;-63
2023/07/08 06:55:57;;;;;;;9.02;5.55;;;;;;;24.60;84.82;100435.50;5022340;28;20026;-63
2023/07/08 06:58:23;;;;;;;8.68;5.43;;;;;;;24.69;81.68;100438.00;5010771;28;20483;-63
2023/07/08 07:00:48;;;;;;;7.68;5.80;;;;;;;24.69;86.14;100443.28;5009294;28;20034;-63
2023/07/08 07:03:14;;;;;;;8.13;5.80;;;;;;;24.58;84.64;100442.59;5010620;28;20037;-67
2023/07/08 07:05:39;;;;;;;8.13;6.22;;;;;;;24.53;86.17;100451.47;5027032;28;20040;-69
2023/07/08 07:08:07;;;;;;;9.80;6.55;;;;;;;24.41;86.68;100458.78;5030994;28;20033;-68
2023/07/08 07:10:33;;;;;;;8.80;6.30;;;;;;;24.36;87.35;100469.44;5030394;28;20408;-64
2023/07/08 07:12:59;;;;;;;7.30;5.95;;;;;;;24.33;87.77;100474.78;5030764;28;20029;-67
2023/07/08 07:15:24;;;;;;;7.93;6.22;;;;;;;24.20;86.51;100484.69;5030690;28;20029;-64
2023/07/08 07:17:50;;;;;;;9.90;6.68;;;;;;;24.02;87.93;100492.06;5030577;28;20384;-65
2023/07/08 07:20:16;;;;;;;10.07;6.70;;;;;;;23.16;95.71;100485.56;5030248;28;20472;-65
2023/07/08 07:22:41;;;;;;;8.35;6.93;;;;;;;23.12;98.89;100486.47;5030604;28;20026;-69
2023/07/08 07:25:07;;;;;;;10.00;7.85;;;;;;;22.88;100.00;100478.91;5030326;28;20484;-66
2023/07/08 07:27:32;;;;;;;9.15;6.70;;;;;;;22.83;100.00;100486.00;5030670;28;20040;-63
2023/07/08 07:30:01;;;;;;;8.18;6.90;;;;;;;22.67;100.00;100479.16;5030161;28;20605;-63
2023/07/08 07:32:28;;;;;;;9.93;7.70;;;;;;;22.52;100.00;100444.28;5030200;28;20029;-67
2023/07/08 07:34:53;;;;;;;9.75;6.95;;;;;;;22.75;100.00;100472.94;5030481;28;20037;-70
2023/07/08 07:37:20;;;;;;;8.90;8.00;;;;;;;22.88;100.00;100473.63;5030405;28;20468;-64
2023/07/08 07:39:47;;;;;;;7.50;6.43;;;;;;;22.97;100.00;100477.91;5030377;28;20033;-62
2023/07/08 07:42:14;;;;;;;12.85;6.80;;;;;;;23.00;100.00;100483.09;5030282;28;20033;-63
2023/07/08 07:44:39;;;;;;;8.57;6.18;;;;;;;22.98;100.00;100484.00;5030439;28;20113;-64
2023/07/08 07:47:06;;;;;;;8.38;6.35;;;;;;;22.87;100.00;100449.97;5030253;28;20087;-66
2023/07/08 07:49:31;;;;;;;7.50;6.70;;;;;;;23.10;100.00;100470.69;5033707;28;20541;-66
2023/07/08 07:51:57;;;;;;;9.63;6.63;;;;;;;23.12;100.00;100471.53;5032777;28;20033;-63
2023/07/08 07:54:23;;;;;;;7.68;6.30;;;;;;;23.03;100.00;100427.78;5034183;28;20091;-64
2023/07/08 07:56:48;;;;;;;7.38;6.07;;;;;;;23.49;100.00;100459.56;5033893;28;20025;-70
2023/07/08 07:59:13;;;;;;;6.93;5.53;;;;;;;23.54;95.22;100440.16;5032997;28;20466;-67
2023/07/08 08:01:41;;;;;;;6.93;5.70;;;;;;;23.68;88.36;100455.72;5032774;28;20079;-63
2023/07/08 08:04:06;;;;;;;6.50;5.78;;;;;;;23.69;92.96;100460.09;5032884;28;20025;-67
2023/07/08 08:06:31;;;;;;;8.23;5.75;;;;;;;23.75;97.34;100452.09;5032631;28;20036;-64
2023/07/08 08:08:57;;;;;;;9.75;6.10;;;;;;;23.84;96.69;100444.88;5032997;28;20784;-67
2023/07/08 08:11:25;;;;;;;13.13;6.63;;;;;;;24.14;94.03;100471.63;5032712;28;20136;-68
2023/07/08 08:13:51;;;;;;;8.05;6.57;;;;;;;24.00;93.98;100441.13;5032343;28;20057;-69
2023/07/08 08:16:16;;;;;;;8.48;5.72;;;;;;;24.30;94.01;100473.06;5032518;28;20021;-68
2023/07/08 08:18:42;;;;;;;7.22;6.22;;;;;;;24.06;90.72;100456.84;5032592;28;20026;-64
2023/07/08 08:21:07;;;;;;;7.25;6.05;;;;;;;24.23;93.70;100464.41;5032282;28;20029;-65
2023/07/08 08:23:33;;;;;;;8.93;6.45;;;;;;;24.30;92.30;100448.44;5032788;28;20026;-64
2023/07/08 08:25:58;;;;;;;7.53;6.47;;;;;;;24.38;89.74;100465.00;5032313;28;20095;-70
2023/07/08 08:28:24;;;;;;;9.85;5.90;;;;;;;24.36;86.75;100470.31;5032283;28;20518;-64
2023/07/08 08:30:50;;;;;;;9.40;6.45;;;;;;;24.35;88.99;100465.94;5031824;28;20029;-68
2023/07/08 08:33:17;;;;;;;7.68;6.75;;;;;;;24.32;91.13;100436.09;5032181;28;20100;-63
2023/07/08 08:35:43;;;;;;;7.07;5.75;;;;;;;24.45;86.61;100469.25;5032278;28;20032;-63
2023/07/08 08:38:09;;;;;;;7.80;6.10;;;;;;;24.49;87.71;100462.16;5032100;28;20029;-64
2023/07/08 08:40:34;;;;;;;7.30;6.35;;;;;;;24.69;88.11;100477.59;5031944;28;20040;-65
2023/07/08 08:43:04;;;;;;;6.97;6.28;;;;;;;24.68;86.59;100460.00;5032074;28;20028;-63
2023/07/08 08:45:36;;;;;;;8.02;5.88;;;;;;;24.88;83.25;100478.03;5032060;28;20029;-64
2023/07/08 08:48:05;;;;;;;6.90;5.20;;;;;;;25.07;79.79;100472.34;5032300;28;20488;-66
2023/07/08 08:50:35;;;;;;;8.75;6.00;;;;;;;25.37;84.73;100473.41;5032124;28;20400;-66
2023/07/08 08:53:05;;;;;;;8.88;6.40;;;;;;;25.47;83.88;100452.91;5031914;28;20036;-70
2023/07/08 08:55:31;;;;;;;8.50;6.40;;;;;;;25.45;83.49;100438.88;5028295;28;20069;-63
2023/07/08 08:57:56;;;;;;;7.57;6.22;;;;;;;25.82;83.73;100470.53;4978586;28;1205724;-67
2023/07/08 09:00:31;;;;;;;8.77;6.05;;;;;;;26.05;81.39;100473.47;5022471;28;20117;-67
2023/07/08 09:03:00;;;;;;;9.18;6.22;;;;;;;26.21;81.33;100469.50;5023275;28;20018;-68
2023/07/08 09:05:26;;;;;;;9.23;6.07;;;;;;;26.40;79.42;100474.28;5022707;28;20053;-66
2023/07/08 09:08:06;;;;;;;8.18;5.30;;;;;;;26.43;75.57;100475.06;5021335;28;20049;-64
2023/07/08 09:10:50;;;;;;;6.82;5.72;;;;;;;26.47;76.92;100467.91;5030952;28;20120;-65
2023/07/08 09:13:22;;;;;;;8.70;6.25;;;;;;;26.28;78.98;100467.53;5031493;28;20476;-64
2023/07/08 09:15:58;;;;;;;8.73;6.07;;;;;;;26.32;79.63;100469.22;5030852;28;20024;-64
2023/07/08 09:18:33;;;;;;;7.72;6.15;;;;;;;26.24;76.33;100472.06;5030281;28;20403;-67
2023/07/08 09:21:04;;;;;;;7.10;5.88;;;;;;;26.24;76.40;100473.84;5043567;28;20120;-63
2023/07/08 09:23:34;;;;;;;9.32;6.00;;;;;;;26.24;74.93;100477.34;5031979;28;20079;-66
2023/07/08 09:26:10;;;;;;;6.47;5.38;;;;;;;26.21;76.37;100471.28;5028581;28;20040;-67
2023/07/08 09:28:43;;;;;;;6.50;5.80;;;;;;;26.17;74.60;100473.16;5031716;28;20100;-66
2023/07/08 09:31:29;;;;;;;8.95;6.00;;;;;;;26.28;78.26;100459.59;5031369;28;20026;-67
2023/07/08 09:34:14;;;;;;;8.52;6.55;;;;;;;26.35;80.49;100455.88;5031292;28;20022;-67
2023/07/08 09:36:42;;;;;;;6.75;5.63;;;;;;;26.65;76.21;100461.16;5029274;28;20036;-67
2023/07/08 09:39:16;;;;;;;8.63;6.38;;;;;;;26.88;79.83;100452.56;5031581;28;20108;-65
2023/07/08 09:41:44;;;;;;;8.77;5.75;;;;;;;26.85;74.62;100438.56;5029894;28;20037;-68
2023/07/08 09:44:17;;;;;;;7.30;5.63;;;;;;;27.05;75.40;100444.06;5032042;28;20041;-67
2023/07/08 09:46:43;;;;;;;10.18;6.13;;;;;;;27.04;74.40;100439.72;5032248;28;20038;-65
2023/07/08 09:49:34;;;;;;;7.97;5.40;;;;;;;27.08;77.42;100440.47;5032250;28;20090;-67
2023/07/08 09:52:00;;;;;;;8.65;6.05;;;;;;;27.10;76.69;100438.63;5031217;28;20496;-66
2023/07/08 09:54:26;;;;;;;7.78;5.80;;;;;;;26.96;73.50;100428.47;5031705;28;20167;-65
2023/07/08 09:56:59;;;;;;;7.90;5.57;;;;;;;26.90;74.70;100445.41;5031688;28;20104;-66
2023/07/08 09:59:39;;;;;;;7.25;5.38;;;;;;;26.57;71.94;100405.81;5031642;28;20049;-67
2023/07/08 10:02:28;;;;;;;11.05;5.78;;;;;;;26.64;75.27;100439.13;5030266;28;20028;-67
2023/07/08 10:04:56;;;;;;;7.22;5.70;;;;;;;26.45;76.10;100440.59;5031913;28;20042;-64
2023/07/08 10:07:22;;;;;;;8.27;5.72;;;;;;;26.43;74.64;100439.75;5031060;28;20037;-64
2023/07/08 10:09:51;;;;;;;7.03;5.70;;;;;;;26.44;74.23;100437.09;5031478;28;20419;-66
2023/07/08 10:12:17;;;;;;;9.40;5.10;;;;;;;26.59;77.73;100430.47;5030542;28;20500;-65
2023/07/08 10:14:48;;;;;;;5.95;4.70;;;;;;;26.62;75.19;100417.13;5031609;28;20034;-65
2023/07/08 10:17:16;;;;;;;6.03;5.03;;;;;;;26.59;74.42;100424.28;5031252;28;20025;-65
2023/07/08 10:19:42;;;;;;;8.55;5.20;;;;;;;26.68;75.49;100417.84;5031564;28;20545;-67
2023/07/08 10:22:34;;;;;;;12.27;8.93;;;;;;;26.73;73.10;100418.56;5031532;28;20105;-68
2023/07/08 10:25:12;;;;;;;12.60;10.50;;;;;;;26.71;77.72;100415.13;5031248;28;20072;-66
2023/07/08 10:27:41;;;;;;;6.65;5.78;;;;;;;26.72;75.63;100415.06;5031446;28;20035;-65
2023/07/08 10:30:06;;;;;;;12.77;10.70;;;;;;;26.64;78.52;100407.38;5031449;28;20041;-65
2023/07/08 10:33:13;;;;;;;7.45;4.82;;;;;;;26.05;80.01;100409.97;5031386;28;20116;-67
2023/07/08 10:36:21;;;;;;;8.10;5.32;;;;;;;25.49;84.52;100411.47;5028735;28;20041;-64
2023/07/08 10:39:17;;;;;;;9.57;6.30;;;;;;;25.20;90.18;100426.25;4931362;29;20083;-67
2023/07/08 10:41:59;;;;;;;21.73;8.27;;;;;;;24.80;99.31;100429.81;4931098;29;20363;-66
2023/07/08 10:44:39;;;;;;;13.95;7.95;;;;;;;24.47;100.00;100382.13;4931180;29;20043;-69
2023/07/08 10:47:29;;;;;;;19.08;8.82;;;;;;;24.81;100.00;100397.22;4931311;29;20132;-67
2023/07/08 10:50:15;;;;;;;15.07;7.07;;;;;;;25.04;100.00;100399.34;4931235;29;20040;-65
2023/07/08 10:52:59;;;;;;;8.57;6.55;;;;;;;25.23;100.00;100377.75;4912466;29;20498;-69
2023/07/08 10:55:43;;;;;;;10.45;6.70;;;;;;;25.43;100.00;100408.97;4931317;29;20059;-64
2023/07/08 10:58:23;;;;;;;13.75;6.75;;;;;;;25.36;100.00;100434.66;4931078;29;20139;-63
2023/07/08 11:01:23;;;;;;;11.45;9.15;;;;;;;24.68;100.00;100412.50;4931110;29;20530;-62
2023/07/08 11:04:11;;;;;;;;;;;;;;;24.67;100.00;100443.31;4931491;29;20051;-63
2023/07/08 11:07:05;;;;;;;11.80;10.60;;;;;;;24.39;100.00;100453.53;4930954;29;20349;-65
2023/07/08 11:09:40;;;;;;;12.40;11.20;;;;;;;24.23;100.00;100455.63;4911856;29;20046;-69
2023/07/08 11:12:46;;;;;;;12.02;10.30;;;;;;;24.17;100.00;100459.25;4878537;29;20477;-66
2023/07/08 11:15:30;;;;;;;11.88;10.68;;;;;;;23.86;100.00;100454.53;4873682;29;20123;-66
2023/07/08 11:18:09;;;;;;;11.82;10.63;;;;;;;24.02;100.00;100456.91;4911984;29;20040;-64
2023/07/08 11:20:34;;;;;;;;;;;;;;;23.89;100.00;100466.78;4912344;29;20047;-68